Time;durP1;ratioP1;P1;durP2;ratioP2;P2;SDS_P1;SDS_P2;PMS_P1;PMS_P2;Temp;Humidity;BMP_temperature;BMP_pressure;BME280_temperature;BME280_humidity;BME280_pressure;Samples;Min_cycle;Max_cycle;Signal;HPM_P1;HPM_P2
2024/02/02 00:01:01;;;;;;;1999.90;999.90;;;;;;;-2.47;67.56;96687.97;5113409;28;20474;-64
2024/02/02 00:03:28;;;;;;;1999.90;999.90;;;;;;;-2.46;67.88;96682.00;5113488;28;20047;-67
2024/02/02 00:05:56;;;;;;;1999.90;999.90;;;;;;;-2.39;68.58;96680.41;5113059;28;20554;-67
2024/02/02 00:08:23;;;;;;;1999.90;999.90;;;;;;;-2.34;68.25;96681.34;5113382;28;20048;-67
2024/02/02 00:10:50;;;;;;;1999.90;999.90;;;;;;;-2.28;66.98;96685.69;5113379;28;20039;-67
2024/02/02 00:13:17;;;;;;;1999.90;999.90;;;;;;;-2.24;66.48;96684.03;5113236;28;20172;-64
2024/02/02 00:15:44;;;;;;;1999.90;999.90;;;;;;;-2.18;66.80;96681.56;5113298;28;20142;-66
2024/02/02 00:18:11;;;;;;;1999.90;999.90;;;;;;;-2.14;66.51;96687.59;5113232;28;20052;-66
2024/02/02 00:20:39;;;;;;;1999.90;999.90;;;;;;;-2.16;67.53;96679.88;5113275;28;20127;-67
2024/02/02 00:23:07;;;;;;;1999.90;999.90;;;;;;;-2.13;67.91;96674.81;5113018;28;20054;-66
2024/02/02 00:25:34;;;;;;;1999.90;999.90;;;;;;;-2.08;68.64;96674.88;5113178;28;20044;-63
2024/02/02 00:28:01;;;;;;;1999.90;999.90;;;;;;;-2.07;68.63;96674.91;5113117;28;20138;-64
2024/02/02 00:30:33;;;;;;;1999.90;999.90;;;;;;;-2.04;68.56;96681.75;5113178;28;20048;-67
2024/02/02 00:33:01;;;;;;;1999.90;999.90;;;;;;;-2.10;67.72;96682.56;5113183;28;20558;-64
2024/02/02 00:35:28;;;;;;;1999.90;999.90;;;;;;;-2.09;67.65;96673.13;5113095;28;20040;-66
2024/02/02 00:37:55;;;;;;;1999.90;999.90;;;;;;;-2.06;68.35;96678.31;5112977;28;20048;-67
2024/02/02 00:40:24;;;;;;;1999.90;999.90;;;;;;;-2.05;68.47;96678.34;5113303;28;20052;-66
2024/02/02 00:42:51;;;;;;;1999.90;999.90;;;;;;;-2.05;67.86;96677.47;5113271;28;20047;-66
2024/02/02 00:45:18;;;;;;;1999.90;999.90;;;;;;;-2.03;67.93;96663.84;5112763;28;20048;-67
2024/02/02 00:47:45;;;;;;;1999.90;999.90;;;;;;;-1.95;69.11;96661.38;5112980;28;20079;-66
2024/02/02 00:50:12;;;;;;;1999.90;999.90;;;;;;;-1.96;68.45;96669.91;5113584;28;20052;-64
2024/02/02 00:52:39;;;;;;;1999.90;999.90;;;;;;;-1.91;67.00;96665.72;5116784;28;20081;-67
2024/02/02 00:55:07;;;;;;;1999.90;999.90;;;;;;;-1.81;66.10;96661.56;5116741;28;20043;-65
2024/02/02 00:57:35;;;;;;;1999.90;999.90;;;;;;;-1.69;66.22;96657.41;5116710;28;20047;-65
2024/02/02 01:00:05;;;;;;;1999.90;999.90;;;;;;;-1.62;64.78;96661.81;5116705;28;20044;-64
2024/02/02 01:02:33;;;;;;;1999.90;999.90;;;;;;;-1.61;66.47;96663.50;5116657;28;20043;-64
2024/02/02 01:04:59;;;;;;;1999.90;999.90;;;;;;;-1.63;67.57;96669.47;5116532;28;20054;-65
2024/02/02 01:07:27;;;;;;;1999.90;999.90;;;;;;;-1.58;66.55;96658.41;5116461;28;20051;-67
2024/02/02 01:09:54;;;;;;;1999.90;999.90;;;;;;;-1.49;67.03;96662.78;5116420;28;20048;-65
2024/02/02 01:12:21;;;;;;;1999.90;999.90;;;;;;;-1.43;68.61;96662.00;5116311;28;20489;-66
2024/02/02 01:14:49;;;;;;;1999.90;999.90;;;;;;;-1.32;69.74;96667.25;5116228;28;20048;-66
2024/02/02 01:17:16;;;;;;;1999.90;999.90;;;;;;;-1.35;66.50;96665.53;5116337;28;20089;-64
2024/02/02 01:19:43;;;;;;;1999.90;999.90;;;;;;;-1.37;66.93;96669.78;5116245;28;20072;-67
2024/02/02 01:22:10;;;;;;;1999.90;999.90;;;;;;;-1.40;69.83;96662.03;5116120;28;20494;-67
2024/02/02 01:24:37;;;;;;;1999.90;999.90;;;;;;;-1.33;71.16;96661.25;5116024;28;20051;-65
2024/02/02 01:27:05;;;;;;;1999.90;999.90;;;;;;;-1.07;67.88;96659.81;5116095;28;20486;-67
2024/02/02 01:29:33;;;;;;;1999.90;999.90;;;;;;;-1.05;66.04;96661.53;5116083;28;20051;-65
2024/02/02 01:32:02;;;;;;;1999.90;999.90;;;;;;;-1.09;65.08;96657.22;5115984;28;20051;-67
2024/02/02 01:34:28;;;;;;;1999.90;999.90;;;;;;;-1.15;64.79;96658.03;5115800;28;20051;-64
2024/02/02 01:36:55;;;;;;;1999.90;999.90;;;;;;;-1.21;64.10;96647.69;5115845;28;20044;-65
2024/02/02 01:39:22;;;;;;;1999.90;999.90;;;;;;;-1.21;64.29;96655.41;5116057;28;20051;-64
2024/02/02 01:41:49;;;;;;;1999.90;999.90;;;;;;;-1.24;64.37;96650.22;5116200;28;20489;-66
2024/02/02 01:44:16;;;;;;;1999.90;999.90;;;;;;;-1.37;64.76;96645.81;5115733;28;20081;-63
2024/02/02 01:46:46;;;;;;;1999.90;999.90;;;;;;;-1.37;64.65;96653.50;5115640;28;20218;-65
2024/02/02 01:49:15;;;;;;;1999.90;999.90;;;;;;;-1.40;66.25;96641.50;5115685;28;20503;-65
2024/02/02 01:51:42;;;;;;;1999.90;999.90;;;;;;;-1.48;67.71;96645.69;5115569;28;20119;-66
2024/02/02 01:54:09;;;;;;;1999.90;999.90;;;;;;;-1.56;69.52;96638.75;5115644;28;20048;-66
2024/02/02 01:56:37;;;;;;;1999.90;999.90;;;;;;;-1.54;70.78;96633.63;5115648;28;20135;-66
2024/02/02 01:59:05;;;;;;;1999.90;999.90;;;;;;;-1.45;70.11;96638.00;5115459;28;20079;-65
2024/02/02 02:01:32;;;;;;;1999.90;999.90;;;;;;;-1.48;70.12;96635.44;5115004;28;20043;-67
2024/02/02 02:03:59;;;;;;;1999.90;999.90;;;;;;;-1.45;70.76;96638.00;5115461;28;20080;-64
2024/02/02 02:06:28;;;;;;;1999.90;999.90;;;;;;;-1.49;70.59;96638.81;5115181;28;20460;-64
2024/02/02 02:08:55;;;;;;;1999.90;999.90;;;;;;;-1.44;70.66;96639.75;5115265;28;20135;-67
2024/02/02 02:11:22;;;;;;;1999.90;999.90;;;;;;;-1.49;71.45;96644.81;5115298;28;20056;-65
2024/02/02 02:13:50;;;;;;;1999.90;999.90;;;;;;;-1.47;71.62;96644.84;5115272;28;20094;-67
2024/02/02 02:16:17;;;;;;;1999.90;999.90;;;;;;;-1.38;71.94;96644.97;5115018;28;20043;-64
2024/02/02 02:18:44;;;;;;;1999.90;999.90;;;;;;;-1.30;72.22;96643.31;5114946;28;20071;-66
2024/02/02 02:21:23;;;;;;;1999.90;999.90;;;;;;;-1.23;71.77;96644.25;5115157;28;20047;-66
2024/02/02 02:23:51;;;;;;;1999.90;999.90;;;;;;;-1.23;70.82;96644.25;5114876;28;20409;-64
2024/02/02 02:26:18;;;;;;;1999.90;999.90;;;;;;;-1.18;70.60;96649.41;5114604;28;20343;-67
2024/02/02 02:28:45;;;;;;;1999.90;999.90;;;;;;;-1.16;70.64;96640.91;5114845;28;20405;-65
2024/02/02 02:31:13;;;;;;;1999.90;999.90;;;;;;;-1.09;70.48;96646.13;5114834;28;20474;-64
2024/02/02 02:33:40;;;;;;;1999.90;999.90;;;;;;;-1.11;71.54;96642.66;5114794;28;20446;-65
2024/02/02 02:36:08;;;;;;;1999.90;999.90;;;;;;;-1.16;71.08;96640.03;5114668;28;20401;-64
2024/02/02 02:38:36;;;;;;;1999.90;999.90;;;;;;;-1.17;71.78;96640.91;5114563;28;20051;-67
2024/02/02 02:41:03;;;;;;;1999.90;999.90;;;;;;;-1.11;72.12;96635.81;5114630;28;20504;-65
2024/02/02 02:43:30;;;;;;;1999.90;999.90;;;;;;;-1.17;72.97;96638.31;5114513;28;20106;-67
2024/02/02 02:45:58;;;;;;;1999.90;999.90;;;;;;;-1.10;73.78;96644.38;5114470;28;20066;-64
2024/02/02 02:48:26;;;;;;;1999.90;999.90;;;;;;;-1.13;74.67;96639.19;5114302;28;20079;-67
2024/02/02 02:50:53;;;;;;;1999.90;999.90;;;;;;;-1.14;75.52;96638.34;5114335;28;20047;-67
2024/02/02 02:53:20;;;;;;;1999.90;999.90;;;;;;;-1.08;75.55;96634.97;5114461;28;20451;-65
2024/02/02 02:55:49;;;;;;;1999.90;999.90;;;;;;;-1.17;75.81;96635.75;5114486;28;20455;-64
2024/02/02 02:58:16;;;;;;;1999.90;999.90;;;;;;;-1.15;76.92;96642.63;5114408;28;20047;-67
2024/02/02 03:00:43;;;;;;;1999.90;999.90;;;;;;;-1.18;77.84;96641.72;5114328;28;20044;-64
2024/02/02 03:03:10;;;;;;;1999.90;999.90;;;;;;;-1.21;79.27;96639.16;5114361;28;20108;-67
2024/02/02 03:05:38;;;;;;;1999.90;999.90;;;;;;;-1.10;79.36;96647.81;5114298;28;20130;-64
2024/02/02 03:08:06;;;;;;;1999.90;999.90;;;;;;;-0.99;78.54;96647.91;5114046;28;20039;-64
2024/02/02 03:10:33;;;;;;;1999.90;999.90;;;;;;;-0.94;77.59;96648.81;5114133;28;20050;-67
2024/02/02 03:13:01;;;;;;;1999.90;999.90;;;;;;;-0.92;76.90;96638.56;5113365;28;20075;-64
2024/02/02 03:15:31;;;;;;;1999.90;999.90;;;;;;;-0.91;76.03;96640.25;5114181;28;20090;-67
2024/02/02 03:17:58;;;;;;;1999.90;999.90;;;;;;;-0.90;75.81;96642.84;5113939;28;20493;-67
2024/02/02 03:20:27;;;;;;;1999.90;999.90;;;;;;;-0.88;75.28;96639.44;5113831;28;20047;-64
2024/02/02 03:22:54;;;;;;;1999.90;999.90;;;;;;;-0.91;73.34;96643.69;5113844;28;20367;-65
2024/02/02 03:25:21;;;;;;;1999.90;999.90;;;;;;;-0.97;72.93;96632.53;5113929;28;20170;-67
2024/02/02 03:27:48;;;;;;;1999.90;999.90;;;;;;;-1.00;73.99;96650.47;5113894;28;20043;-66
2024/02/02 03:30:17;;;;;;;1999.90;999.90;;;;;;;-1.00;74.22;96646.19;5113787;28;20078;-64
2024/02/02 03:32:45;;;;;;;1999.90;999.90;;;;;;;-0.95;73.78;96644.53;5113759;28;20051;-64
2024/02/02 03:35:12;;;;;;;1999.90;999.90;;;;;;;-0.93;74.03;96649.69;5113651;28;20496;-66
2024/02/02 03:37:39;;;;;;;1999.90;999.90;;;;;;;-0.98;74.27;96646.19;5113641;28;20048;-64
2024/02/02 03:40:08;;;;;;;1999.90;999.90;;;;;;;-0.99;77.08;96647.06;5113551;28;20044;-65
2024/02/02 03:42:36;;;;;;;1999.90;999.90;;;;;;;-0.94;77.90;96646.25;5113887;28;20101;-66
2024/02/02 03:45:03;;;;;;;1999.90;999.90;;;;;;;-0.96;78.65;96644.50;5113427;28;20491;-65
2024/02/02 03:47:31;;;;;;;1999.90;999.90;;;;;;;-0.85;78.75;96645.47;5113661;28;20481;-67
2024/02/02 03:49:59;;;;;;;1999.90;999.90;;;;;;;-0.80;77.85;96650.66;5113454;28;20051;-64
2024/02/02 03:52:26;;;;;;;1999.90;999.90;;;;;;;-0.80;76.59;96653.22;5113387;28;20048;-67
2024/02/02 03:54:53;;;;;;;1999.90;999.90;;;;;;;-0.79;75.99;96650.66;5113457;28;20047;-66
2024/02/02 03:57:20;;;;;;;1999.90;999.90;;;;;;;-0.80;76.62;96658.34;5113422;28;20391;-64
2024/02/02 03:59:48;;;;;;;1999.90;999.90;;;;;;;-0.75;76.84;96656.69;5113462;28;20101;-67
2024/02/02 04:02:16;;;;;;;1999.90;999.90;;;;;;;-0.77;77.74;96659.25;5113278;28;20048;-63
2024/02/02 04:04:45;;;;;;;1999.90;999.90;;;;;;;-0.72;79.56;96656.69;5113304;28;20123;-64
2024/02/02 04:07:12;;;;;;;1999.90;999.90;;;;;;;-0.65;79.91;96658.50;5113278;28;20056;-66
2024/02/02 04:09:40;;;;;;;1999.90;999.90;;;;;;;-0.58;78.56;96661.97;5113345;28;20055;-66
2024/02/02 04:12:07;;;;;;;1999.90;999.90;;;;;;;-0.56;76.71;96655.13;5113403;28;20055;-66
2024/02/02 04:14:35;;;;;;;1999.90;999.90;;;;;;;-0.58;76.58;96661.09;5113404;28;20047;-66
2024/02/02 04:17:02;;;;;;;1999.90;999.90;;;;;;;-0.65;77.90;96665.34;5113264;28;20067;-66
2024/02/02 04:19:29;;;;;;;1999.90;999.90;;;;;;;-0.60;78.96;96663.66;5113314;28;20071;-65
2024/02/02 04:21:58;;;;;;;1999.90;999.90;;;;;;;-0.53;78.73;96665.44;5113204;28;20040;-65
2024/02/02 04:24:25;;;;;;;1999.90;999.90;;;;;;;-0.46;79.55;96668.03;5114264;28;20077;-64
2024/02/02 04:26:52;;;;;;;1999.90;999.90;;;;;;;-0.37;80.54;96660.41;5116967;28;20098;-66
2024/02/02 04:29:19;;;;;;;1999.90;999.90;;;;;;;-0.30;80.38;96666.47;5117105;28;20047;-63
2024/02/02 04:31:46;;;;;;;1999.90;999.90;;;;;;;-0.23;80.50;96667.34;5117125;28;20043;-66
2024/02/02 04:34:13;;;;;;;1999.90;999.90;;;;;;;-0.22;81.25;96679.34;5117027;28;20047;-64
2024/02/02 04:36:41;;;;;;;1999.90;999.90;;;;;;;-0.19;81.67;96667.38;5117089;28;20074;-62
2024/02/02 04:39:10;;;;;;;1999.90;999.90;;;;;;;-0.11;82.01;96674.28;5116967;28;20097;-66
2024/02/02 04:41:37;;;;;;;1999.90;999.90;;;;;;;-0.06;81.81;96680.34;5116913;28;20047;-65
2024/02/02 04:44:05;;;;;;;1999.90;999.90;;;;;;;-0.07;82.24;96682.03;5116795;28;20082;-68
2024/02/02 04:46:32;;;;;;;1999.90;999.90;;;;;;;-0.02;82.66;96684.66;5116936;28;20058;-63
2024/02/02 04:48:59;;;;;;;1999.90;999.90;;;;;;;-0.03;82.93;96688.09;5116839;28;20039;-67
2024/02/02 04:51:26;;;;;;;1999.90;999.90;;;;;;;0.05;84.19;96686.41;5117171;28;20051;-64
2024/02/02 04:53:54;;;;;;;1999.90;999.90;;;;;;;0.21;85.07;96689.06;5116700;28;20067;-64
2024/02/02 04:56:22;;;;;;;1999.90;999.90;;;;;;;0.70;87.60;96687.56;5116628;28;20492;-64
2024/02/02 04:58:52;;;;;;;1999.90;999.90;;;;;;;1.30;85.96;96683.41;5116603;28;20806;-63
2024/02/02 05:01:19;;;;;;;1999.90;999.90;;;;;;;1.87;84.02;96693.72;5116615;28;20059;-63
2024/02/02 05:03:46;;;;;;;1999.90;999.90;;;;;;;2.32;81.35;96694.53;5116405;28;20511;-67
2024/02/02 05:06:16;;;;;;;1999.90;999.90;;;;;;;2.81;78.84;96695.19;5116476;28;20055;-65
2024/02/02 05:08:44;;;;;;;1999.90;999.90;;;;;;;3.18;76.67;96701.88;5116452;28;20508;-65
2024/02/02 05:11:13;;;;;;;1999.90;999.90;;;;;;;3.41;75.79;96709.50;5116386;28;20062;-67
2024/02/02 05:13:43;;;;;;;1999.90;999.90;;;;;;;3.55;74.48;96699.06;5116248;28;20047;-67
2024/02/02 05:16:11;;;;;;;1999.90;999.90;;;;;;;3.69;73.70;96704.13;5116455;28;20409;-66
2024/02/02 05:18:39;;;;;;;1999.90;999.90;;;;;;;3.82;72.87;96714.41;5116186;28;20055;-67
2024/02/02 05:21:06;;;;;;;1999.90;999.90;;;;;;;4.00;71.78;96724.56;5116181;28;20070;-67
2024/02/02 05:23:33;;;;;;;1999.90;999.90;;;;;;;4.13;71.08;96724.47;5116068;28;20052;-66
2024/02/02 05:26:00;;;;;;;1999.90;999.90;;;;;;;4.30;69.94;96719.13;5115798;28;20048;-67
2024/02/02 05:28:28;;;;;;;1999.90;999.90;;;;;;;4.39;69.89;96725.94;5116083;28;20051;-64
2024/02/02 05:30:57;;;;;;;1999.90;999.90;;;;;;;4.46;69.56;96729.34;5116021;28;20051;-66
2024/02/02 05:33:24;;;;;;;1999.90;999.90;;;;;;;4.49;68.71;96737.06;5115917;28;20511;-66
2024/02/02 05:35:52;;;;;;;1999.90;999.90;;;;;;;4.54;68.43;96743.06;5115217;28;20126;-64
2024/02/02 05:38:19;;;;;;;1999.90;999.90;;;;;;;4.59;67.96;96737.81;5115756;28;20083;-68
2024/02/02 05:40:46;;;;;;;1999.90;999.90;;;;;;;4.65;67.75;96743.81;5115804;28;20048;-68
2024/02/02 05:43:13;;;;;;;1999.90;999.90;;;;;;;4.67;67.69;96742.03;5115758;28;20096;-66
2024/02/02 05:45:41;;;;;;;1999.90;999.90;;;;;;;4.70;67.29;96740.31;5115907;28;20054;-67
2024/02/02 05:48:09;;;;;;;1999.90;999.90;;;;;;;4.73;67.40;96746.28;5115635;28;20052;-63
2024/02/02 05:50:36;;;;;;;1999.90;999.90;;;;;;;4.73;67.24;96743.69;5115736;28;20075;-64
2024/02/02 05:53:04;;;;;;;1999.90;999.90;;;;;;;4.76;67.00;96751.44;5115586;28;20121;-67
2024/02/02 05:58:11;;;;;;;;;;;;;;;4.94;66.42;96757.31;5105436;28;20056;-66
2024/02/02 06:00:38;;;;;;;1999.90;999.90;;;;;;;4.93;66.54;96748.66;5115357;28;19972;-64
2024/02/02 06:03:05;;;;;;;1999.90;999.90;;;;;;;5.05;66.07;96758.03;5115445;28;20090;-68
2024/02/02 06:05:34;;;;;;;1999.90;999.90;;;;;;;5.17;65.68;96764.78;5115674;28;20055;-66
2024/02/02 06:08:02;;;;;;;1999.90;999.90;;;;;;;5.25;65.59;96769.03;5115212;28;20130;-68
2024/02/02 06:10:32;;;;;;;1999.90;999.90;;;;;;;5.43;64.87;96767.94;5115245;28;20052;-64
2024/02/02 06:12:59;;;;;;;1999.90;999.90;;;;;;;5.59;64.19;96770.28;5115127;28;20083;-65
2024/02/02 06:15:27;;;;;;;1999.90;999.90;;;;;;;5.78;63.61;96768.31;5115094;28;20054;-65
2024/02/02 06:17:54;;;;;;;1999.90;999.90;;;;;;;5.88;62.93;96772.47;5115012;28;20047;-68
2024/02/02 06:20:21;;;;;;;1999.90;999.90;;;;;;;5.97;62.77;96774.06;5115134;28;20143;-64
2024/02/02 06:22:49;;;;;;;1999.90;999.90;;;;;;;5.98;62.41;96780.09;5114848;28;20139;-66
2024/02/02 06:25:17;;;;;;;1999.90;999.90;;;;;;;6.07;62.28;96785.19;5114913;28;20044;-67
2024/02/02 06:27:44;;;;;;;1999.90;999.90;;;;;;;6.16;61.63;96799.75;5114665;28;20152;-66
2024/02/02 06:30:12;;;;;;;1999.90;999.90;;;;;;;6.26;61.48;96801.31;5114827;28;20051;-64
2024/02/02 06:32:41;;;;;;;1999.90;999.90;;;;;;;6.39;61.07;96801.13;5114722;28;20493;-66
2024/02/02 06:35:08;;;;;;;1999.90;999.90;;;;;;;6.45;60.52;96796.66;5114761;28;20039;-65
2024/02/02 06:37:35;;;;;;;1999.90;999.90;;;;;;;6.56;60.34;96795.63;5114716;28;20048;-65
2024/02/02 06:40:04;;;;;;;1999.90;999.90;;;;;;;6.61;59.98;96808.53;5114708;28;20122;-64
2024/02/02 06:42:32;;;;;;;1999.90;999.90;;;;;;;6.53;59.89;96806.94;5114631;28;20055;-64
2024/02/02 06:44:59;;;;;;;1999.90;999.90;;;;;;;6.49;60.11;96804.41;5114575;28;20051;-64
2024/02/02 06:47:26;;;;;;;1999.90;999.90;;;;;;;6.49;60.15;96810.47;5113910;28;20108;-65
2024/02/02 06:49:54;;;;;;;1999.90;999.90;;;;;;;6.42;60.52;96820.09;5114052;28;20049;-66
2024/02/02 06:52:21;;;;;;;1999.90;999.90;;;;;;;6.38;60.42;96817.59;5114342;28;20040;-65
2024/02/02 06:54:48;;;;;;;1999.90;999.90;;;;;;;6.31;60.65;96817.72;5114270;28;20051;-66
2024/02/02 06:57:18;;;;;;;1999.90;999.90;;;;;;;6.23;61.06;96811.75;5114198;28;20044;-63
2024/02/02 06:59:45;;;;;;;1999.90;999.90;;;;;;;6.25;61.49;96819.53;5114152;28;20101;-64
2024/02/02 07:02:19;;;;;;;1999.90;999.90;;;;;;;6.21;61.21;96810.94;5114268;28;20044;-64
2024/02/02 07:04:47;;;;;;;1999.90;999.90;;;;;;;6.16;61.24;96810.16;5114120;28;20447;-66
2024/02/02 07:07:15;;;;;;;1999.90;999.90;;;;;;;6.19;61.60;96816.16;5114114;28;20052;-64
2024/02/02 07:09:48;;;;;;;1999.90;999.90;;;;;;;6.14;61.39;96820.56;5114191;28;20058;-67
2024/02/02 07:12:51;;;;;;;1999.90;999.90;;;;;;;6.14;61.64;96820.56;5114090;28;20043;-67
2024/02/02 07:15:19;;;;;;;1999.90;999.90;;;;;;;6.12;61.38;96817.16;5114089;28;20134;-66
2024/02/02 07:17:47;;;;;;;1999.90;999.90;;;;;;;6.13;61.44;96820.59;5113915;28;20039;-65
2024/02/02 07:20:49;;;;;;;1999.90;999.90;;;;;;;6.14;61.61;96817.97;5114122;28;20130;-63
2024/02/02 07:23:31;;;;;;;1999.90;999.90;;;;;;;6.14;61.43;96819.72;5113925;28;20122;-66
2024/02/02 07:25:58;;;;;;;1999.90;999.90;;;;;;;6.12;61.53;96818.88;5113831;28;20044;-65
2024/02/02 07:28:32;;;;;;;1999.90;999.90;;;;;;;6.11;61.16;96818.00;5113739;28;20047;-66
2024/02/02 07:30:59;;;;;;;1999.90;999.90;;;;;;;6.13;61.24;96826.66;5113860;28;20516;-65
2024/02/02 07:33:30;;;;;;;1999.90;999.90;;;;;;;6.08;61.72;96825.84;5113751;28;20049;-68
2024/02/02 07:35:58;;;;;;;;;;;;;;;6.04;61.57;96826.78;5114150;28;20573;-67
2024/02/02 07:38:49;;;;;;;1999.90;999.90;;;;;;;5.98;61.70;96832.03;5113667;28;19927;-66
2024/02/02 07:41:18;;;;;;;1999.90;999.90;;;;;;;6.00;61.65;96836.34;5113790;28;20459;-63
2024/02/02 07:43:47;;;;;;;1999.90;999.90;;;;;;;5.97;61.71;96838.13;5113616;28;20050;-65
2024/02/02 07:46:14;;;;;;;1999.90;999.90;;;;;;;5.99;61.31;96845.00;5113642;28;20418;-66
2024/02/02 07:48:42;;;;;;;1999.90;999.90;;;;;;;5.99;61.41;96847.59;5113423;28;20059;-65
2024/02/02 07:51:09;;;;;;;1999.90;999.90;;;;;;;5.96;61.07;96841.59;5113603;28;20051;-65
2024/02/02 07:53:36;;;;;;;1999.90;999.90;;;;;;;5.95;61.32;96848.53;5113508;28;20405;-65
2024/02/02 07:56:04;;;;;;;1999.90;999.90;;;;;;;5.92;60.78;96844.25;5113391;28;20048;-67
2024/02/02 07:58:31;;;;;;;1999.90;999.90;;;;;;;5.90;61.12;96856.38;5113411;28;20080;-66
2024/02/02 08:01:00;;;;;;;1999.90;999.90;;;;;;;5.93;60.46;96858.94;5117417;28;20489;-64
2024/02/02 08:03:27;;;;;;;1999.90;999.90;;;;;;;5.91;60.31;96868.50;5117666;28;20043;-68
2024/02/02 08:05:54;;;;;;;1999.90;999.90;;;;;;;5.91;60.22;96865.03;5117621;28;20051;-68
2024/02/02 08:08:21;;;;;;;1999.90;999.90;;;;;;;5.87;60.53;96865.97;5117637;28;20085;-66
2024/02/02 08:10:48;;;;;;;1999.90;999.90;;;;;;;5.85;60.29;96873.78;5117905;28;20043;-68
2024/02/02 08:13:15;;;;;;;1999.90;999.90;;;;;;;5.78;60.60;96875.59;5117488;28;20135;-68
2024/02/02 08:15:43;;;;;;;1999.90;999.90;;;;;;;5.82;60.65;96881.59;5117373;28;20055;-64
2024/02/02 08:18:12;;;;;;;1999.90;999.90;;;;;;;5.83;60.53;96883.31;5117399;28;20055;-68
2024/02/02 08:20:39;;;;;;;1999.90;999.90;;;;;;;5.84;61.01;96889.38;5117390;28;20089;-65
2024/02/02 08:23:07;;;;;;;1999.90;999.90;;;;;;;5.84;60.67;96885.03;5117328;28;20118;-67
2024/02/02 08:25:34;;;;;;;1999.90;999.90;;;;;;;5.84;60.14;96879.84;5117120;28;20565;-65
2024/02/02 08:28:01;;;;;;;1999.90;999.90;;;;;;;5.80;60.44;96875.56;5116870;28;20139;-64
2024/02/02 08:30:28;;;;;;;1999.90;999.90;;;;;;;5.89;60.60;96892.75;5117053;28;20075;-67
2024/02/02 08:32:55;;;;;;;1999.90;999.90;;;;;;;5.81;60.43;96903.28;5117107;28;20047;-68
2024/02/02 08:35:24;;;;;;;1999.90;999.90;;;;;;;5.88;60.68;96899.72;5117538;28;20096;-67
2024/02/02 08:37:52;;;;;;;1999.90;999.90;;;;;;;5.95;60.77;96900.47;5117101;28;20059;-64
2024/02/02 08:40:34;;;;;;;1999.90;999.90;;;;;;;6.02;60.65;96907.28;5117404;28;20047;-65
2024/02/02 08:43:02;;;;;;;1999.90;999.90;;;;;;;6.04;60.01;96908.16;5116933;28;20558;-66
2024/02/02 08:46:04;;;;;;;1999.90;999.90;;;;;;;6.00;60.16;96911.66;5117173;28;20073;-64
2024/02/02 08:48:38;;;;;;;1999.90;999.90;;;;;;;6.02;60.27;96911.66;5116819;28;20051;-66
2024/02/02 08:51:53;;;;;;;1999.90;999.90;;;;;;;6.05;60.77;96914.22;5116742;28;20039;-64
2024/02/02 08:54:38;;;;;;;1999.90;999.90;;;;;;;6.08;60.97;96919.34;5116842;28;20130;-65
2024/02/02 08:57:30;;;;;;;1999.90;999.90;;;;;;;6.03;60.39;96914.22;5116744;28;20113;-63
2024/02/02 09:00:04;;;;;;;1999.90;999.90;;;;;;;6.04;60.69;96915.09;5116634;28;20048;-66
2024/02/02 09:03:06;;;;;;;1999.90;999.90;;;;;;;6.05;60.09;96915.06;5116585;28;20513;-65
2024/02/02 09:05:51;;;;;;;1999.90;999.90;;;;;;;6.03;59.76;96922.00;5116767;28;20043;-67
2024/02/02 09:08:37;;;;;;;1999.90;999.90;;;;;;;6.11;59.91;96928.88;5116485;28;20134;-65
2024/02/02 09:11:23;;;;;;;1999.90;999.90;;;;;;;6.20;59.95;96928.72;5114565;28;20493;-68
2024/02/02 09:14:00;;;;;;;1999.90;999.90;;;;;;;6.26;58.87;96933.84;5116388;28;20048;-66
2024/02/02 09:16:39;;;;;;;1999.90;999.90;;;;;;;6.38;58.79;96938.00;5116389;28;20378;-67
2024/02/02 09:19:17;;;;;;;1999.90;999.90;;;;;;;6.45;59.09;96926.63;5116271;28;20043;-64
2024/02/02 09:21:44;;;;;;;1999.90;999.90;;;;;;;6.51;57.94;96920.50;5116180;28;20047;-65
2024/02/02 09:24:27;;;;;;;1999.90;999.90;;;;;;;6.50;59.07;96926.56;5116186;28;20044;-66
2024/02/02 09:26:57;;;;;;;1999.90;999.90;;;;;;;6.54;58.20;96928.22;5115945;28;20466;-66
2024/02/02 09:29:24;;;;;;;1999.90;999.90;;;;;;;6.53;58.74;96928.25;5116010;28;20054;-67
2024/02/02 09:31:51;;;;;;;1999.90;999.90;;;;;;;6.56;59.01;96929.06;5115939;28;20048;-65
2024/02/02 09:34:24;;;;;;;1999.90;999.90;;;;;;;6.45;57.91;96920.59;5115954;28;20051;-66
2024/02/02 09:36:53;;;;;;;1999.90;999.90;;;;;;;6.59;57.67;96922.09;5115849;28;20139;-67
2024/02/02 09:39:49;;;;;;;1999.90;999.90;;;;;;;6.58;57.79;96918.63;5115847;28;20126;-65
2024/02/02 09:42:41;;;;;;;1999.90;999.90;;;;;;;6.60;57.56;96914.28;5115672;28;20051;-68
2024/02/02 09:45:12;;;;;;;1999.90;999.90;;;;;;;6.67;57.59;96921.09;5115797;28;20054;-66
2024/02/02 09:48:02;;;;;;;1999.90;999.90;;;;;;;6.69;57.26;96916.72;5115592;28;20062;-67
2024/02/02 09:50:39;;;;;;;1999.90;999.90;;;;;;;6.75;56.92;96917.50;5115740;28;20040;-65
2024/02/02 09:53:28;;;;;;;1999.90;999.90;;;;;;;6.84;56.87;96927.75;5115731;28;20073;-67
2024/02/02 09:56:07;;;;;;;1999.90;999.90;;;;;;;6.85;55.98;96926.00;5115552;28;20393;-66
2024/02/02 09:58:42;;;;;;;1999.90;999.90;;;;;;;6.69;56.60;96916.72;5115463;28;20054;-67
2024/02/02 10:01:25;;;;;;;1999.90;999.90;;;;;;;6.71;56.89;96919.28;5115419;28;20485;-66
2024/02/02 10:04:03;;;;;;;1999.90;999.90;;;;;;;6.78;56.64;96918.34;5115329;28;20048;-67
2024/02/02 10:06:44;;;;;;;1999.90;999.90;;;;;;;6.72;56.36;96925.34;5115458;28;20048;-67
2024/02/02 10:09:36;;;;;;;1999.90;999.90;;;;;;;6.72;56.45;96917.56;5115161;28;20054;-64
2024/02/02 10:12:25;;;;;;;1999.90;999.90;;;;;;;6.69;56.25;96921.06;5115096;28;20050;-68
2024/02/02 10:15:19;;;;;;;1999.90;999.90;;;;;;;6.69;56.15;96923.66;5115090;28;20051;-64
2024/02/02 10:18:08;;;;;;;1999.90;999.90;;;;;;;6.56;56.17;96921.25;5115038;28;20077;-66
2024/02/02 10:20:44;;;;;;;1999.90;999.90;;;;;;;6.43;56.71;96923.19;5114950;28;20052;-64
2024/02/02 10:23:47;;;;;;;1999.90;999.90;;;;;;;6.43;56.65;96927.53;5114736;28;20499;-64
2024/02/02 10:26:30;;;;;;;1999.90;999.90;;;;;;;6.43;57.48;96919.72;5114876;28;20094;-65
2024/02/02 10:29:13;;;;;;;1999.90;999.90;;;;;;;6.45;56.92;96916.22;5114857;28;20071;-66
2024/02/02 10:32:10;;;;;;;1999.90;999.90;;;;;;;6.42;57.34;96915.44;5115072;28;20047;-67
2024/02/02 10:34:54;;;;;;;1999.90;999.90;;;;;;;6.41;57.74;96914.56;5114729;28;20543;-64
2024/02/02 10:37:34;;;;;;;1999.90;999.90;;;;;;;6.39;57.80;96918.94;5114674;28;20514;-64
2024/02/02 10:40:22;;;;;;;1999.90;999.90;;;;;;;6.43;58.01;96927.53;5115043;28;20047;-65
2024/02/02 10:43:09;;;;;;;1999.90;999.90;;;;;;;6.27;58.11;96919.13;5114664;28;20088;-63
2024/02/02 10:45:42;;;;;;;1999.90;999.90;;;;;;;6.28;58.21;96929.50;5114593;28;20052;-66
2024/02/02 10:48:31;;;;;;;1999.90;999.90;;;;;;;6.39;58.10;96929.34;5114494;28;20100;-65
2024/02/02 10:51:13;;;;;;;1999.90;999.90;;;;;;;6.42;58.13;96931.03;5114570;28;20044;-65
2024/02/02 10:53:51;;;;;;;1999.90;999.90;;;;;;;6.46;58.13;96927.50;5114681;28;20478;-63
2024/02/02 10:56:29;;;;;;;1999.90;999.90;;;;;;;6.56;57.75;96918.66;5114372;28;20043;-68
2024/02/02 10:59:08;;;;;;;1999.90;999.90;;;;;;;6.53;57.63;96925.66;5114519;28;20073;-69
2024/02/02 11:01:50;;;;;;;1999.90;999.90;;;;;;;6.52;57.44;96932.59;5114265;28;20044;-64
2024/02/02 11:04:28;;;;;;;1999.90;999.90;;;;;;;6.59;57.49;96937.69;5114278;28;20441;-67
2024/02/02 11:07:05;;;;;;;1999.90;999.90;;;;;;;6.64;57.14;96930.69;5114193;28;20043;-67
2024/02/02 11:09:38;;;;;;;1999.90;999.90;;;;;;;6.65;56.72;96925.44;5114024;28;20051;-68
2024/02/02 11:12:12;;;;;;;1999.90;999.90;;;;;;;6.61;57.01;96933.31;5114064;28;20051;-64
2024/02/02 11:14:42;;;;;;;1999.90;999.90;;;;;;;6.66;56.97;96927.19;5114303;28;20050;-64
2024/02/02 11:17:20;;;;;;;1999.90;999.90;;;;;;;6.64;56.67;96931.53;5114097;28;20117;-68
2024/02/02 11:20:06;;;;;;;1999.90;999.90;;;;;;;6.61;56.56;96934.19;5113968;28;20089;-69